Marion Dredge — WDC6836 — position and weather

sailwx.info

Track history (hours):
 
Tides and Currents Weather Stations Pressure Air Temp Water Temp Dewpoint Dewpoint Depression Visibility Wind Speed Wind Dir Waves Ship Positions

Marion Dredge

Owner: Pine Bluff Sand & Gravel Company, Pine Bluff, AR. More information available from US FCC via Universal Licensing System and Coast Guard Vessel Documentation Center.

Last reported at 2017-Dec-12 23:10 UTC. Time now 2017-Dec-17 17:45 UTC.
Position N 29°44' W 095°16'.

Length 10 m.

Type: Towing. MMSI: 367061960.

Date/timePositionNaut miles runAvg speedWind from/ knotsBaromVisibWave heightAir tempDewpointWater temp
2017-Dec-12 23:10N 29°44' W 095°16'0 0.0
2017-Dec-12 22:59N 29°44' W 095°16'0 0.7
2017-Dec-12 22:24N 29°44' W 095°15'0 0.4
2017-Dec-12 21:23N 29°44' W 095°16'1 3.8
2017-Dec-12 21:00N 29°45' W 095°17'0 0.7
2017-Dec-12 20:26N 29°45' W 095°17'2 3.6
2017-Dec-12 19:57N 29°44' W 095°16'0 0.3
2017-Dec-12 18:49N 29°44' W 095°16'0 0.0
2017-Dec-12 17:59N 29°44' W 095°16'0 0.2
2017-Dec-12 17:09N 29°44' W 095°16'0 0.2
2017-Dec-12 16:15N 29°44' W 095°16'0 0.1
2017-Dec-12 15:57N 29°44' W 095°16'0 0.0
2017-Dec-10 15:09N 29°44' W 095°16'0 0.0
2017-Dec-10 00:42N 29°44' W 095°16'0 0.0
2017-Dec-10 00:27N 29°44' W 095°16'0 0.1
2017-Dec-09 23:45N 29°44' W 095°16'0 0.3
2017-Dec-09 23:12N 29°44' W 095°16'0 0.3
2017-Dec-09 22:46N 29°44' W 095°16'0 0.0
2017-Dec-09 22:30N 29°44' W 095°16'0 0.1
2017-Dec-09 21:57N 29°44' W 095°16'0 0.0
2017-Dec-09 19:39N 29°44' W 095°16'0 0.5
2017-Dec-09 19:27N 29°44' W 095°16'0 0.0
2017-Dec-09 17:17N 29°44' W 095°16'0 0.2
2017-Dec-09 16:47N 29°44' W 095°16'0 0.1
2017-Dec-09 15:23N 29°44' W 095°16'0 0.0
2017-Dec-09 14:56N 29°44' W 095°16'9 0.5
2017-Dec-08 20:59N 29°45' W 095°06'0 0.0
2017-Dec-08 20:29N 29°45' W 095°06'2 0.9
2017-Dec-08 17:36N 29°44' W 095°08'1 4.4
2017-Dec-08 17:27N 29°44' W 095°09'4 3.6
2017-Dec-08 16:24N 29°43' W 095°13'2 3.8
2017-Dec-08 15:58N 29°43' W 095°15'1 1.7
2017-Dec-08 15:28N 29°44' W 095°16'0 0.7
2017-Dec-08 14:59N 29°44' W 095°16'0 0.7
2017-Dec-08 14:30N 29°44' W 095°16'  
Track history (hours):
 
Tides and Currents Weather Stations Pressure Air Temp Water Temp Dewpoint Dewpoint Depression Visibility Wind Speed Wind Dir Waves Ship Positions

Marion Dredge

Owner: Pine Bluff Sand & Gravel Company, Pine Bluff, AR. More information available from US FCC via Universal Licensing System and Coast Guard Vessel Documentation Center.

Last reported at 2017-Dec-12 23:10 UTC. Time now 2017-Dec-17 17:45 UTC.
Position N 29°44' W 095°16'.

Length 10 m.

Type: Towing. MMSI: 367061960.

Date/timePositionNaut miles runAvg speedWind from/ knotsBaromVisibWave heightAir tempDewpointWater temp
2017-Dec-12 23:10N 29°44' W 095°16'0 0.0
2017-Dec-12 22:59N 29°44' W 095°16'0 0.7
2017-Dec-12 22:24N 29°44' W 095°15'0 0.4
2017-Dec-12 21:23N 29°44' W 095°16'1 3.8
2017-Dec-12 21:00N 29°45' W 095°17'0 0.7
2017-Dec-12 20:26N 29°45' W 095°17'2 3.6
2017-Dec-12 19:57N 29°44' W 095°16'0 0.3
2017-Dec-12 18:49N 29°44' W 095°16'0 0.0
2017-Dec-12 17:59N 29°44' W 095°16'0 0.2
2017-Dec-12 17:09N 29°44' W 095°16'0 0.2
2017-Dec-12 16:15N 29°44' W 095°16'0 0.1
2017-Dec-12 15:57N 29°44' W 095°16'0 0.0
2017-Dec-10 15:09N 29°44' W 095°16'0 0.0
2017-Dec-10 00:42N 29°44' W 095°16'0 0.0
2017-Dec-10 00:27N 29°44' W 095°16'0 0.1
2017-Dec-09 23:45N 29°44' W 095°16'0 0.3
2017-Dec-09 23:12N 29°44' W 095°16'0 0.3
2017-Dec-09 22:46N 29°44' W 095°16'0 0.0
2017-Dec-09 22:30N 29°44' W 095°16'0 0.1
2017-Dec-09 21:57N 29°44' W 095°16'0 0.0
2017-Dec-09 19:39N 29°44' W 095°16'0 0.5
2017-Dec-09 19:27N 29°44' W 095°16'0 0.0
2017-Dec-09 17:17N 29°44' W 095°16'0 0.2
2017-Dec-09 16:47N 29°44' W 095°16'0 0.1
2017-Dec-09 15:23N 29°44' W 095°16'0 0.0
2017-Dec-09 14:56N 29°44' W 095°16'9 0.5
2017-Dec-08 20:59N 29°45' W 095°06'0 0.0
2017-Dec-08 20:29N 29°45' W 095°06'2 0.9
2017-Dec-08 17:36N 29°44' W 095°08'1 4.4
2017-Dec-08 17:27N 29°44' W 095°09'4 3.6
2017-Dec-08 16:24N 29°43' W 095°13'2 3.8
2017-Dec-08 15:58N 29°43' W 095°15'1 1.7
2017-Dec-08 15:28N 29°44' W 095°16'0 0.7
2017-Dec-08 14:59N 29°44' W 095°16'0 0.7
2017-Dec-08 14:30N 29°44' W 095°16'  

Dump ship's entire track history